sensor_id;sensor_type;location;lat;lon;timestamp;P1;durP1;ratioP1;P2;durP2;ratioP2
20080;SDS011;10200;49.232;9.222;2022-12-29T00:01:32;3.33;;;1.67;;
20080;SDS011;10200;49.232;9.222;2022-12-29T00:03:58;4.83;;;1.60;;
20080;SDS011;10200;49.232;9.222;2022-12-29T00:06:24;2.30;;;2.10;;
20080;SDS011;10200;49.232;9.222;2022-12-29T00:08:50;2.33;;;2.13;;
20080;SDS011;10200;49.232;9.222;2022-12-29T00:11:16;2.80;;;1.70;;
20080;SDS011;10200;49.232;9.222;2022-12-29T00:13:44;2.00;;;1.60;;
20080;SDS011;10200;49.232;9.222;2022-12-29T00:16:29;2.27;;;1.50;;
20080;SDS011;10200;49.232;9.222;2022-12-29T00:18:55;2.10;;;1.30;;
20080;SDS011;10200;49.232;9.222;2022-12-29T00:21:21;3.57;;;1.70;;
20080;SDS011;10200;49.232;9.222;2022-12-29T00:24:20;4.23;;;1.53;;
20080;SDS011;10200;49.232;9.222;2022-12-29T00:26:47;2.73;;;1.77;;
20080;SDS011;10200;49.232;9.222;2022-12-29T00:29:36;2.47;;;1.60;;
20080;SDS011;10200;49.232;9.222;2022-12-29T00:32:20;3.90;;;1.73;;
20080;SDS011;10200;49.232;9.222;2022-12-29T00:35:10;4.27;;;1.37;;
20080;SDS011;10200;49.232;9.222;2022-12-29T00:37:40;1.70;;;1.53;;
20080;SDS011;10200;49.232;9.222;2022-12-29T00:40:27;5.77;;;1.50;;
20080;SDS011;10200;49.232;9.222;2022-12-29T00:43:15;2.93;;;1.53;;
20080;SDS011;10200;49.232;9.222;2022-12-29T00:45:59;1.63;;;1.53;;
20080;SDS011;10200;49.232;9.222;2022-12-29T00:48:25;1.50;;;1.40;;
20080;SDS011;10200;49.232;9.222;2022-12-29T00:51:09;2.07;;;1.30;;
20080;SDS011;10200;49.232;9.222;2022-12-29T00:53:35;5.23;;;2.00;;
20080;SDS011;10200;49.232;9.222;2022-12-29T00:56:00;1.90;;;1.40;;
20080;SDS011;10200;49.232;9.222;2022-12-29T00:58:29;1.93;;;1.30;;
20080;SDS011;10200;49.232;9.222;2022-12-29T01:01:02;2.53;;;1.33;;
20080;SDS011;10200;49.232;9.222;2022-12-29T01:03:28;4.33;;;1.77;;
20080;SDS011;10200;49.232;9.222;2022-12-29T01:05:54;3.07;;;1.63;;
20080;SDS011;10200;49.232;9.222;2022-12-29T01:08:20;3.83;;;1.60;;
20080;SDS011;10200;49.232;9.222;2022-12-29T01:10:45;3.53;;;1.70;;
20080;SDS011;10200;49.232;9.222;2022-12-29T01:13:11;5.17;;;1.30;;
20080;SDS011;10200;49.232;9.222;2022-12-29T01:15:36;2.37;;;1.37;;
20080;SDS011;10200;49.232;9.222;2022-12-29T01:18:02;2.53;;;1.67;;
20080;SDS011;10200;49.232;9.222;2022-12-29T01:20:28;2.33;;;1.60;;
20080;SDS011;10200;49.232;9.222;2022-12-29T01:22:53;2.87;;;1.53;;
20080;SDS011;10200;49.232;9.222;2022-12-29T01:25:19;2.70;;;1.67;;
20080;SDS011;10200;49.232;9.222;2022-12-29T01:27:45;2.63;;;1.37;;
20080;SDS011;10200;49.232;9.222;2022-12-29T01:30:10;2.67;;;1.57;;
20080;SDS011;10200;49.232;9.222;2022-12-29T01:32:36;4.63;;;1.60;;
20080;SDS011;10200;49.232;9.222;2022-12-29T01:35:02;2.00;;;1.40;;
20080;SDS011;10200;49.232;9.222;2022-12-29T01:37:28;2.33;;;1.57;;
20080;SDS011;10200;49.232;9.222;2022-12-29T01:39:53;3.57;;;1.20;;
20080;SDS011;10200;49.232;9.222;2022-12-29T01:42:19;2.97;;;1.47;;
20080;SDS011;10200;49.232;9.222;2022-12-29T01:44:53;1.60;;;1.30;;
20080;SDS011;10200;49.232;9.222;2022-12-29T01:47:41;2.30;;;1.00;;
20080;SDS011;10200;49.232;9.222;2022-12-29T01:52:33;1.47;;;1.10;;
20080;SDS011;10200;49.232;9.222;2022-12-29T01:55:02;5.03;;;1.77;;
20080;SDS011;10200;49.232;9.222;2022-12-29T01:57:31;2.57;;;1.00;;
20080;SDS011;10200;49.232;9.222;2022-12-29T02:00:04;2.63;;;1.37;;
20080;SDS011;10200;49.232;9.222;2022-12-29T02:02:34;4.87;;;1.90;;
20080;SDS011;10200;49.232;9.222;2022-12-29T02:05:03;2.77;;;1.60;;
20080;SDS011;10200;49.232;9.222;2022-12-29T02:07:34;5.03;;;1.70;;
20080;SDS011;10200;49.232;9.222;2022-12-29T02:10:00;2.73;;;1.73;;
20080;SDS011;10200;49.232;9.222;2022-12-29T02:12:27;1.57;;;1.30;;
20080;SDS011;10200;49.232;9.222;2022-12-29T02:14:54;2.63;;;1.37;;
20080;SDS011;10200;49.232;9.222;2022-12-29T02:31:10;4.67;;;1.33;;
20080;SDS011;10200;49.232;9.222;2022-12-29T02:36:42;5.20;;;1.43;;
20080;SDS011;10200;49.232;9.222;2022-12-29T02:44:39;2.17;;;1.40;;
20080;SDS011;10200;49.232;9.222;2022-12-29T02:47:15;2.63;;;1.40;;
20080;SDS011;10200;49.232;9.222;2022-12-29T02:49:49;3.37;;;1.30;;
20080;SDS011;10200;49.232;9.222;2022-12-29T02:52:27;5.67;;;1.30;;
20080;SDS011;10200;49.232;9.222;2022-12-29T02:54:59;3.53;;;1.60;;
20080;SDS011;10200;49.232;9.222;2022-12-29T02:59:52;4.87;;;1.60;;
20080;SDS011;10200;49.232;9.222;2022-12-29T03:02:27;1.97;;;1.30;;
20080;SDS011;10200;49.232;9.222;2022-12-29T03:11:04;1.83;;;1.30;;
20080;SDS011;10200;49.232;9.222;2022-12-29T03:13:52;2.00;;;1.40;;
20080;SDS011;10200;49.232;9.222;2022-12-29T03:16:46;6.33;;;1.23;;
20080;SDS011;10200;49.232;9.222;2022-12-29T03:19:25;2.63;;;1.50;;
20080;SDS011;10200;49.232;9.222;2022-12-29T03:22:05;1.77;;;1.40;;
20080;SDS011;10200;49.232;9.222;2022-12-29T03:24:52;2.20;;;1.40;;
20080;SDS011;10200;49.232;9.222;2022-12-29T03:27:22;2.50;;;1.33;;
20080;SDS011;10200;49.232;9.222;2022-12-29T03:29:55;3.93;;;1.30;;
20080;SDS011;10200;49.232;9.222;2022-12-29T03:32:26;1.93;;;1.67;;
20080;SDS011;10200;49.232;9.222;2022-12-29T03:34:56;5.00;;;1.93;;
20080;SDS011;10200;49.232;9.222;2022-12-29T03:37:28;1.77;;;1.20;;
20080;SDS011;10200;49.232;9.222;2022-12-29T03:39:57;3.53;;;1.87;;
20080;SDS011;10200;49.232;9.222;2022-12-29T03:42:23;4.30;;;1.77;;
20080;SDS011;10200;49.232;9.222;2022-12-29T03:44:55;4.30;;;1.27;;
20080;SDS011;10200;49.232;9.222;2022-12-29T03:47:22;2.43;;;1.40;;
20080;SDS011;10200;49.232;9.222;2022-12-29T03:49:48;2.17;;;1.70;;
20080;SDS011;10200;49.232;9.222;2022-12-29T03:52:14;3.53;;;1.90;;
20080;SDS011;10200;49.232;9.222;2022-12-29T03:54:40;1.83;;;1.33;;
20080;SDS011;10200;49.232;9.222;2022-12-29T03:57:05;4.00;;;1.53;;
20080;SDS011;10200;49.232;9.222;2022-12-29T03:59:31;2.03;;;1.40;;
20080;SDS011;10200;49.232;9.222;2022-12-29T04:01:56;2.73;;;1.67;;
20080;SDS011;10200;49.232;9.222;2022-12-29T04:04:22;1.57;;;1.47;;
20080;SDS011;10200;49.232;9.222;2022-12-29T04:06:47;7.50;;;1.50;;
20080;SDS011;10200;49.232;9.222;2022-12-29T04:09:13;2.10;;;1.50;;
20080;SDS011;10200;49.232;9.222;2022-12-29T04:11:39;2.07;;;1.27;;
20080;SDS011;10200;49.232;9.222;2022-12-29T04:14:04;2.07;;;1.40;;
20080;SDS011;10200;49.232;9.222;2022-12-29T04:16:30;2.40;;;1.20;;
20080;SDS011;10200;49.232;9.222;2022-12-29T04:18:55;2.40;;;1.20;;
20080;SDS011;10200;49.232;9.222;2022-12-29T04:21:21;4.57;;;1.70;;
20080;SDS011;10200;49.232;9.222;2022-12-29T04:23:46;2.33;;;1.73;;
20080;SDS011;10200;49.232;9.222;2022-12-29T04:26:12;4.60;;;1.90;;
20080;SDS011;10200;49.232;9.222;2022-12-29T04:28:38;2.47;;;1.60;;
20080;SDS011;10200;49.232;9.222;2022-12-29T04:31:04;2.50;;;1.70;;
20080;SDS011;10200;49.232;9.222;2022-12-29T04:33:30;2.57;;;1.43;;
20080;SDS011;10200;49.232;9.222;2022-12-29T04:35:56;3.57;;;1.60;;
20080;SDS011;10200;49.232;9.222;2022-12-29T04:38:22;2.80;;;1.50;;
20080;SDS011;10200;49.232;9.222;2022-12-29T04:40:49;4.10;;;1.67;;
20080;SDS011;10200;49.232;9.222;2022-12-29T04:43:15;2.97;;;2.03;;
20080;SDS011;10200;49.232;9.222;2022-12-29T04:45:47;3.03;;;1.60;;
20080;SDS011;10200;49.232;9.222;2022-12-29T04:48:13;5.83;;;1.70;;
20080;SDS011;10200;49.232;9.222;2022-12-29T04:50:40;2.03;;;1.70;;
20080;SDS011;10200;49.232;9.222;2022-12-29T04:53:06;4.03;;;2.00;;
20080;SDS011;10200;49.232;9.222;2022-12-29T04:55:32;4.20;;;1.97;;
20080;SDS011;10200;49.232;9.222;2022-12-29T04:57:57;2.93;;;1.90;;
20080;SDS011;10200;49.232;9.222;2022-12-29T05:00:23;2.23;;;1.70;;
20080;SDS011;10200;49.232;9.222;2022-12-29T05:02:49;4.77;;;2.00;;
20080;SDS011;10200;49.232;9.222;2022-12-29T05:05:14;5.27;;;2.27;;
20080;SDS011;10200;49.232;9.222;2022-12-29T05:07:40;6.60;;;2.90;;
20080;SDS011;10200;49.232;9.222;2022-12-29T05:10:06;7.10;;;3.83;;
20080;SDS011;10200;49.232;9.222;2022-12-29T05:12:33;9.87;;;4.13;;
20080;SDS011;10200;49.232;9.222;2022-12-29T05:14:59;8.73;;;3.87;;
20080;SDS011;10200;49.232;9.222;2022-12-29T05:17:27;8.87;;;3.20;;
20080;SDS011;10200;49.232;9.222;2022-12-29T05:19:52;6.90;;;2.47;;
20080;SDS011;10200;49.232;9.222;2022-12-29T05:22:18;5.30;;;2.57;;
20080;SDS011;10200;49.232;9.222;2022-12-29T05:24:43;4.60;;;2.07;;
20080;SDS011;10200;49.232;9.222;2022-12-29T05:27:09;3.03;;;1.60;;
20080;SDS011;10200;49.232;9.222;2022-12-29T05:29:34;2.73;;;1.50;;
20080;SDS011;10200;49.232;9.222;2022-12-29T05:32:00;1.70;;;1.20;;
20080;SDS011;10200;49.232;9.222;2022-12-29T05:34:25;2.40;;;1.50;;
20080;SDS011;10200;49.232;9.222;2022-12-29T05:36:51;1.43;;;1.17;;
20080;SDS011;10200;49.232;9.222;2022-12-29T05:39:16;2.53;;;1.00;;
20080;SDS011;10200;49.232;9.222;2022-12-29T05:41:42;2.97;;;1.17;;
20080;SDS011;10200;49.232;9.222;2022-12-29T05:44:09;3.00;;;1.43;;
20080;SDS011;10200;49.232;9.222;2022-12-29T05:46:35;4.23;;;1.27;;
20080;SDS011;10200;49.232;9.222;2022-12-29T05:49:01;1.83;;;1.10;;
20080;SDS011;10200;49.232;9.222;2022-12-29T05:51:26;3.53;;;1.23;;
20080;SDS011;10200;49.232;9.222;2022-12-29T05:53:52;3.73;;;1.40;;
20080;SDS011;10200;49.232;9.222;2022-12-29T05:56:17;2.33;;;1.33;;
20080;SDS011;10200;49.232;9.222;2022-12-29T05:58:43;1.70;;;1.30;;
20080;SDS011;10200;49.232;9.222;2022-12-29T06:01:08;2.80;;;1.83;;
20080;SDS011;10200;49.232;9.222;2022-12-29T06:03:34;2.83;;;2.00;;
20080;SDS011;10200;49.232;9.222;2022-12-29T06:05:59;2.40;;;1.50;;
20080;SDS011;10200;49.232;9.222;2022-12-29T06:08:25;3.07;;;1.63;;
20080;SDS011;10200;49.232;9.222;2022-12-29T06:10:51;2.80;;;1.20;;
20080;SDS011;10200;49.232;9.222;2022-12-29T06:13:16;1.60;;;1.20;;
20080;SDS011;10200;49.232;9.222;2022-12-29T06:15:42;4.07;;;1.80;;
20080;SDS011;10200;49.232;9.222;2022-12-29T06:18:07;2.37;;;1.20;;
20080;SDS011;10200;49.232;9.222;2022-12-29T06:20:33;3.40;;;1.73;;
20080;SDS011;10200;49.232;9.222;2022-12-29T06:22:59;2.40;;;1.57;;
20080;SDS011;10200;49.232;9.222;2022-12-29T06:25:24;1.80;;;1.40;;
20080;SDS011;10200;49.232;9.222;2022-12-29T06:27:50;2.43;;;1.60;;
20080;SDS011;10200;49.232;9.222;2022-12-29T06:30:15;5.73;;;2.13;;
20080;SDS011;10200;49.232;9.222;2022-12-29T06:32:42;2.00;;;1.33;;
20080;SDS011;10200;49.232;9.222;2022-12-29T06:35:07;1.60;;;1.30;;
20080;SDS011;10200;49.232;9.222;2022-12-29T06:37:33;3.10;;;1.80;;
20080;SDS011;10200;49.232;9.222;2022-12-29T06:39:59;1.67;;;1.23;;
20080;SDS011;10200;49.232;9.222;2022-12-29T06:42:25;1.37;;;0.93;;
20080;SDS011;10200;49.232;9.222;2022-12-29T06:44:50;2.40;;;1.20;;
20080;SDS011;10200;49.232;9.222;2022-12-29T06:47:17;1.73;;;1.20;;
20080;SDS011;10200;49.232;9.222;2022-12-29T06:49:43;1.43;;;1.10;;
20080;SDS011;10200;49.232;9.222;2022-12-29T06:52:09;2.07;;;1.10;;
20080;SDS011;10200;49.232;9.222;2022-12-29T06:54:34;3.43;;;1.10;;
20080;SDS011;10200;49.232;9.222;2022-12-29T06:57:00;3.80;;;1.63;;
20080;SDS011;10200;49.232;9.222;2022-12-29T06:59:25;1.30;;;1.20;;
20080;SDS011;10200;49.232;9.222;2022-12-29T07:01:51;1.87;;;1.30;;
20080;SDS011;10200;49.232;9.222;2022-12-29T07:04:16;2.40;;;1.50;;
20080;SDS011;10200;49.232;9.222;2022-12-29T07:06:42;1.40;;;1.23;;
20080;SDS011;10200;49.232;9.222;2022-12-29T07:09:08;1.30;;;1.20;;
20080;SDS011;10200;49.232;9.222;2022-12-29T07:11:34;2.40;;;1.33;;
20080;SDS011;10200;49.232;9.222;2022-12-29T07:14:00;3.97;;;1.20;;
20080;SDS011;10200;49.232;9.222;2022-12-29T07:16:25;1.53;;;1.10;;
20080;SDS011;10200;49.232;9.222;2022-12-29T07:18:51;1.20;;;1.10;;
20080;SDS011;10200;49.232;9.222;2022-12-29T07:21:17;2.43;;;1.57;;
20080;SDS011;10200;49.232;9.222;2022-12-29T07:23:43;2.93;;;1.83;;
20080;SDS011;10200;49.232;9.222;2022-12-29T07:26:09;2.13;;;1.37;;
20080;SDS011;10200;49.232;9.222;2022-12-29T07:28:38;2.03;;;1.50;;
20080;SDS011;10200;49.232;9.222;2022-12-29T07:31:04;3.13;;;1.80;;
20080;SDS011;10200;49.232;9.222;2022-12-29T07:33:38;3.87;;;2.03;;
20080;SDS011;10200;49.232;9.222;2022-12-29T07:36:04;1.50;;;1.40;;
20080;SDS011;10200;49.232;9.222;2022-12-29T07:38:30;3.13;;;1.63;;
20080;SDS011;10200;49.232;9.222;2022-12-29T07:40:56;2.43;;;1.50;;
20080;SDS011;10200;49.232;9.222;2022-12-29T07:43:23;2.63;;;1.40;;
20080;SDS011;10200;49.232;9.222;2022-12-29T07:45:49;1.70;;;1.43;;
20080;SDS011;10200;49.232;9.222;2022-12-29T07:48:14;3.00;;;1.43;;
20080;SDS011;10200;49.232;9.222;2022-12-29T07:50:40;2.00;;;1.27;;
20080;SDS011;10200;49.232;9.222;2022-12-29T07:53:05;1.90;;;1.40;;
20080;SDS011;10200;49.232;9.222;2022-12-29T07:55:31;1.70;;;1.60;;
20080;SDS011;10200;49.232;9.222;2022-12-29T07:57:56;4.07;;;1.67;;
20080;SDS011;10200;49.232;9.222;2022-12-29T08:00:22;3.40;;;1.43;;
20080;SDS011;10200;49.232;9.222;2022-12-29T08:02:48;2.07;;;1.50;;
20080;SDS011;10200;49.232;9.222;2022-12-29T08:05:14;4.37;;;1.20;;
20080;SDS011;10200;49.232;9.222;2022-12-29T08:07:41;1.73;;;1.27;;
20080;SDS011;10200;49.232;9.222;2022-12-29T08:10:09;1.77;;;1.57;;
20080;SDS011;10200;49.232;9.222;2022-12-29T08:12:35;3.30;;;1.77;;
20080;SDS011;10200;49.232;9.222;2022-12-29T08:15:02;1.63;;;1.40;;
20080;SDS011;10200;49.232;9.222;2022-12-29T08:17:28;2.53;;;1.90;;
20080;SDS011;10200;49.232;9.222;2022-12-29T08:19:53;2.47;;;1.37;;
20080;SDS011;10200;49.232;9.222;2022-12-29T08:22:19;2.40;;;1.30;;
20080;SDS011;10200;49.232;9.222;2022-12-29T08:24:44;2.80;;;1.80;;
20080;SDS011;10200;49.232;9.222;2022-12-29T08:27:10;1.53;;;1.33;;
20080;SDS011;10200;49.232;9.222;2022-12-29T08:29:36;4.43;;;1.63;;
20080;SDS011;10200;49.232;9.222;2022-12-29T08:32:01;3.37;;;1.53;;
20080;SDS011;10200;49.232;9.222;2022-12-29T08:34:27;1.93;;;1.60;;
20080;SDS011;10200;49.232;9.222;2022-12-29T08:36:52;4.93;;;1.53;;
20080;SDS011;10200;49.232;9.222;2022-12-29T08:39:18;6.30;;;1.60;;
20080;SDS011;10200;49.232;9.222;2022-12-29T08:41:44;2.97;;;1.70;;
20080;SDS011;10200;49.232;9.222;2022-12-29T08:44:09;4.37;;;2.43;;
20080;SDS011;10200;49.232;9.222;2022-12-29T08:46:35;3.17;;;1.40;;
20080;SDS011;10200;49.232;9.222;2022-12-29T08:49:00;2.60;;;1.60;;
20080;SDS011;10200;49.232;9.222;2022-12-29T08:51:26;5.13;;;2.03;;
20080;SDS011;10200;49.232;9.222;2022-12-29T08:53:51;3.00;;;1.37;;
20080;SDS011;10200;49.232;9.222;2022-12-29T08:56:17;4.23;;;1.80;;
20080;SDS011;10200;49.232;9.222;2022-12-29T08:58:43;2.33;;;1.80;;
20080;SDS011;10200;49.232;9.222;2022-12-29T09:01:08;5.67;;;1.97;;
20080;SDS011;10200;49.232;9.222;2022-12-29T09:03:34;1.97;;;1.63;;
20080;SDS011;10200;49.232;9.222;2022-12-29T09:06:00;3.93;;;1.47;;
20080;SDS011;10200;49.232;9.222;2022-12-29T09:08:26;5.40;;;2.17;;
20080;SDS011;10200;49.232;9.222;2022-12-29T09:10:51;2.67;;;1.53;;
20080;SDS011;10200;49.232;9.222;2022-12-29T09:13:17;6.27;;;1.80;;
20080;SDS011;10200;49.232;9.222;2022-12-29T09:15:43;3.33;;;1.70;;
20080;SDS011;10200;49.232;9.222;2022-12-29T09:18:09;3.83;;;1.97;;
20080;SDS011;10200;49.232;9.222;2022-12-29T09:20:36;4.93;;;2.40;;
20080;SDS011;10200;49.232;9.222;2022-12-29T09:23:02;15.33;;;8.23;;
20080;SDS011;10200;49.232;9.222;2022-12-29T09:25:28;6.07;;;3.50;;
20080;SDS011;10200;49.232;9.222;2022-12-29T09:27:54;4.20;;;2.40;;
20080;SDS011;10200;49.232;9.222;2022-12-29T09:30:20;2.57;;;1.77;;
20080;SDS011;10200;49.232;9.222;2022-12-29T09:32:47;4.13;;;2.80;;
20080;SDS011;10200;49.232;9.222;2022-12-29T09:35:14;4.37;;;2.00;;
20080;SDS011;10200;49.232;9.222;2022-12-29T09:37:41;6.43;;;2.53;;
20080;SDS011;10200;49.232;9.222;2022-12-29T09:40:09;8.30;;;2.50;;
20080;SDS011;10200;49.232;9.222;2022-12-29T09:42:53;3.27;;;2.47;;
20080;SDS011;10200;49.232;9.222;2022-12-29T09:45:25;3.37;;;2.10;;
20080;SDS011;10200;49.232;9.222;2022-12-29T09:47:57;3.70;;;2.47;;
20080;SDS011;10200;49.232;9.222;2022-12-29T09:50:24;4.70;;;2.50;;
20080;SDS011;10200;49.232;9.222;2022-12-29T09:53:01;5.73;;;2.17;;
20080;SDS011;10200;49.232;9.222;2022-12-29T09:55:38;2.67;;;2.07;;
20080;SDS011;10200;49.232;9.222;2022-12-29T10:03:46;4.00;;;1.43;;
20080;SDS011;10200;49.232;9.222;2022-12-29T10:06:21;1.73;;;1.20;;
20080;SDS011;10200;49.232;9.222;2022-12-29T10:14:28;1.17;;;0.90;;
20080;SDS011;10200;49.232;9.222;2022-12-29T10:22:52;3.10;;;1.60;;
20080;SDS011;10200;49.232;9.222;2022-12-29T10:25:19;0.87;;;0.80;;
20080;SDS011;10200;49.232;9.222;2022-12-29T10:27:48;1.37;;;1.13;;
20080;SDS011;10200;49.232;9.222;2022-12-29T10:30:15;2.20;;;1.10;;
20080;SDS011;10200;49.232;9.222;2022-12-29T10:35:39;4.77;;;1.70;;
20080;SDS011;10200;49.232;9.222;2022-12-29T10:41:00;3.67;;;1.00;;
20080;SDS011;10200;49.232;9.222;2022-12-29T10:43:49;3.23;;;0.90;;
20080;SDS011;10200;49.232;9.222;2022-12-29T10:46:18;2.80;;;1.13;;
20080;SDS011;10200;49.232;9.222;2022-12-29T10:48:55;3.27;;;1.30;;
20080;SDS011;10200;49.232;9.222;2022-12-29T10:53:54;1.53;;;1.00;;
20080;SDS011;10200;49.232;9.222;2022-12-29T10:58:52;3.23;;;1.57;;
20080;SDS011;10200;49.232;9.222;2022-12-29T11:01:21;1.93;;;1.43;;
20080;SDS011;10200;49.232;9.222;2022-12-29T11:06:26;6.40;;;1.33;;
20080;SDS011;10200;49.232;9.222;2022-12-29T11:09:14;2.63;;;1.30;;
20080;SDS011;10200;49.232;9.222;2022-12-29T11:11:44;3.10;;;1.53;;
20080;SDS011;10200;49.232;9.222;2022-12-29T11:14:11;2.40;;;1.30;;
20080;SDS011;10200;49.232;9.222;2022-12-29T11:16:39;2.23;;;1.47;;
20080;SDS011;10200;49.232;9.222;2022-12-29T11:19:19;1.93;;;1.10;;
20080;SDS011;10200;49.232;9.222;2022-12-29T11:21:45;1.00;;;0.90;;
20080;SDS011;10200;49.232;9.222;2022-12-29T11:24:24;1.43;;;1.23;;
20080;SDS011;10200;49.232;9.222;2022-12-29T11:26:52;1.23;;;1.13;;
20080;SDS011;10200;49.232;9.222;2022-12-29T11:29:24;2.03;;;1.50;;
20080;SDS011;10200;49.232;9.222;2022-12-29T11:31:58;3.97;;;1.40;;
20080;SDS011;10200;49.232;9.222;2022-12-29T11:34:25;1.60;;;1.50;;
20080;SDS011;10200;49.232;9.222;2022-12-29T11:37:00;1.90;;;1.43;;
20080;SDS011;10200;49.232;9.222;2022-12-29T11:39:30;6.47;;;1.70;;
20080;SDS011;10200;49.232;9.222;2022-12-29T11:41:57;2.43;;;1.50;;
20080;SDS011;10200;49.232;9.222;2022-12-29T11:44:24;2.10;;;1.20;;
20080;SDS011;10200;49.232;9.222;2022-12-29T11:46:51;3.63;;;1.40;;
20080;SDS011;10200;49.232;9.222;2022-12-29T11:49:19;2.27;;;1.70;;
20080;SDS011;10200;49.232;9.222;2022-12-29T11:51:47;2.40;;;1.80;;
20080;SDS011;10200;49.232;9.222;2022-12-29T11:54:36;5.03;;;1.60;;
20080;SDS011;10200;49.232;9.222;2022-12-29T11:57:15;4.50;;;2.13;;
20080;SDS011;10200;49.232;9.222;2022-12-29T12:00:09;3.17;;;1.53;;
20080;SDS011;10200;49.232;9.222;2022-12-29T12:02:41;3.90;;;1.73;;
20080;SDS011;10200;49.232;9.222;2022-12-29T12:07:49;2.27;;;1.77;;
20080;SDS011;10200;49.232;9.222;2022-12-29T12:11:07;2.20;;;1.60;;
20080;SDS011;10200;49.232;9.222;2022-12-29T12:13:22;3.70;;;1.30;;
20080;SDS011;10200;49.232;9.222;2022-12-29T12:16:08;2.13;;;1.33;;
20080;SDS011;10200;49.232;9.222;2022-12-29T12:18:40;1.97;;;1.60;;
20080;SDS011;10200;49.232;9.222;2022-12-29T12:21:22;2.43;;;1.40;;
20080;SDS011;10200;49.232;9.222;2022-12-29T12:24:07;4.23;;;1.93;;
20080;SDS011;10200;49.232;9.222;2022-12-29T12:29:22;3.67;;;2.00;;
20080;SDS011;10200;49.232;9.222;2022-12-29T12:34:36;5.73;;;2.20;;
20080;SDS011;10200;49.232;9.222;2022-12-29T12:45:50;1.70;;;1.40;;
20080;SDS011;10200;49.232;9.222;2022-12-29T12:51:03;3.27;;;1.47;;
20080;SDS011;10200;49.232;9.222;2022-12-29T12:53:53;1.73;;;1.10;;
20080;SDS011;10200;49.232;9.222;2022-12-29T12:56:37;1.37;;;1.27;;
20080;SDS011;10200;49.232;9.222;2022-12-29T13:07:50;1.43;;;0.93;;
20080;SDS011;10200;49.232;9.222;2022-12-29T13:18:56;3.73;;;1.10;;
20080;SDS011;10200;49.232;9.222;2022-12-29T13:26:52;1.53;;;0.77;;
20080;SDS011;10200;49.232;9.222;2022-12-29T13:29:23;0.73;;;0.63;;
20080;SDS011;10200;49.232;9.222;2022-12-29T13:37:33;2.13;;;0.70;;
20080;SDS011;10200;49.232;9.222;2022-12-29T13:40:10;0.53;;;0.53;;
20080;SDS011;10200;49.232;9.222;2022-12-29T13:42:41;0.60;;;0.60;;
20080;SDS011;10200;49.232;9.222;2022-12-29T13:45:13;1.47;;;0.87;;
20080;SDS011;10200;49.232;9.222;2022-12-29T13:47:51;1.10;;;0.70;;
20080;SDS011;10200;49.232;9.222;2022-12-29T13:50:22;1.83;;;1.00;;
20080;SDS011;10200;49.232;9.222;2022-12-29T13:53:06;2.13;;;1.10;;
20080;SDS011;10200;49.232;9.222;2022-12-29T13:55:45;2.30;;;1.00;;
20080;SDS011;10200;49.232;9.222;2022-12-29T13:58:20;1.30;;;1.03;;
20080;SDS011;10200;49.232;9.222;2022-12-29T14:00:58;3.90;;;1.97;;
20080;SDS011;10200;49.232;9.222;2022-12-29T14:08:45;2.73;;;1.23;;
20080;SDS011;10200;49.232;9.222;2022-12-29T14:11:14;1.23;;;0.93;;
20080;SDS011;10200;49.232;9.222;2022-12-29T14:13:43;2.70;;;1.10;;
20080;SDS011;10200;49.232;9.222;2022-12-29T14:16:22;4.40;;;1.17;;
20080;SDS011;10200;49.232;9.222;2022-12-29T14:18:51;2.37;;;1.03;;
20080;SDS011;10200;49.232;9.222;2022-12-29T14:21:20;4.50;;;1.63;;
20080;SDS011;10200;49.232;9.222;2022-12-29T14:23:49;1.57;;;1.00;;
20080;SDS011;10200;49.232;9.222;2022-12-29T14:28:53;1.57;;;1.20;;
20080;SDS011;10200;49.232;9.222;2022-12-29T14:41:59;1.83;;;1.00;;
20080;SDS011;10200;49.232;9.222;2022-12-29T14:47:19;1.53;;;1.03;;
20080;SDS011;10200;49.232;9.222;2022-12-29T14:49:45;2.73;;;1.00;;
20080;SDS011;10200;49.232;9.222;2022-12-29T14:52:16;2.43;;;0.93;;
20080;SDS011;10200;49.232;9.222;2022-12-29T14:54:57;2.57;;;1.57;;
20080;SDS011;10200;49.232;9.222;2022-12-29T14:57:38;2.57;;;0.80;;
20080;SDS011;10200;49.232;9.222;2022-12-29T15:02:44;3.73;;;1.00;;
20080;SDS011;10200;49.232;9.222;2022-12-29T15:08:19;5.07;;;1.20;;
20080;SDS011;10200;49.232;9.222;2022-12-29T15:10:52;1.83;;;0.90;;
20080;SDS011;10200;49.232;9.222;2022-12-29T15:13:34;1.43;;;0.80;;
20080;SDS011;10200;49.232;9.222;2022-12-29T15:16:02;1.90;;;1.17;;
20080;SDS011;10200;49.232;9.222;2022-12-29T15:18:29;2.53;;;1.40;;
20080;SDS011;10200;49.232;9.222;2022-12-29T15:20:57;4.13;;;1.63;;
20080;SDS011;10200;49.232;9.222;2022-12-29T15:23:25;2.00;;;1.00;;
20080;SDS011;10200;49.232;9.222;2022-12-29T15:25:55;3.83;;;1.00;;
20080;SDS011;10200;49.232;9.222;2022-12-29T15:28:24;4.00;;;1.17;;
20080;SDS011;10200;49.232;9.222;2022-12-29T15:31:01;4.37;;;1.30;;
20080;SDS011;10200;49.232;9.222;2022-12-29T15:33:28;3.10;;;2.23;;
20080;SDS011;10200;49.232;9.222;2022-12-29T15:35:55;4.47;;;1.50;;
20080;SDS011;10200;49.232;9.222;2022-12-29T15:38:27;1.90;;;1.13;;
20080;SDS011;10200;49.232;9.222;2022-12-29T15:40:54;1.83;;;1.10;;
20080;SDS011;10200;49.232;9.222;2022-12-29T15:46:14;3.07;;;1.10;;
20080;SDS011;10200;49.232;9.222;2022-12-29T15:48:40;2.00;;;1.03;;
20080;SDS011;10200;49.232;9.222;2022-12-29T15:51:19;3.00;;;2.00;;
20080;SDS011;10200;49.232;9.222;2022-12-29T15:53:48;2.90;;;1.10;;
20080;SDS011;10200;49.232;9.222;2022-12-29T15:56:16;2.93;;;1.23;;
20080;SDS011;10200;49.232;9.222;2022-12-29T15:58:43;1.67;;;1.17;;
20080;SDS011;10200;49.232;9.222;2022-12-29T16:01:33;2.73;;;1.60;;
20080;SDS011;10200;49.232;9.222;2022-12-29T16:04:00;1.70;;;1.37;;
20080;SDS011;10200;49.232;9.222;2022-12-29T16:09:04;2.73;;;1.33;;
20080;SDS011;10200;49.232;9.222;2022-12-29T16:11:42;3.37;;;1.27;;
20080;SDS011;10200;49.232;9.222;2022-12-29T16:14:15;1.60;;;1.00;;
20080;SDS011;10200;49.232;9.222;2022-12-29T16:16:43;4.00;;;1.20;;
20080;SDS011;10200;49.232;9.222;2022-12-29T16:21:42;4.30;;;1.23;;
20080;SDS011;10200;49.232;9.222;2022-12-29T16:24:12;4.17;;;1.70;;
20080;SDS011;10200;49.232;9.222;2022-12-29T16:26:48;5.20;;;2.67;;
20080;SDS011;10200;49.232;9.222;2022-12-29T16:29:16;6.30;;;3.10;;
20080;SDS011;10200;49.232;9.222;2022-12-29T16:31:49;2.63;;;2.43;;
20080;SDS011;10200;49.232;9.222;2022-12-29T16:39:46;5.17;;;2.80;;
20080;SDS011;10200;49.232;9.222;2022-12-29T16:50:37;3.33;;;2.30;;
20080;SDS011;10200;49.232;9.222;2022-12-29T16:53:05;5.43;;;2.43;;
20080;SDS011;10200;49.232;9.222;2022-12-29T16:55:45;4.50;;;3.40;;
20080;SDS011;10200;49.232;9.222;2022-12-29T16:58:16;5.43;;;3.13;;
20080;SDS011;10200;49.232;9.222;2022-12-29T17:00:44;4.27;;;2.43;;
20080;SDS011;10200;49.232;9.222;2022-12-29T17:03:11;2.23;;;1.63;;
20080;SDS011;10200;49.232;9.222;2022-12-29T17:05:37;3.00;;;1.90;;
20080;SDS011;10200;49.232;9.222;2022-12-29T17:08:12;2.60;;;1.80;;
20080;SDS011;10200;49.232;9.222;2022-12-29T17:10:47;6.80;;;1.80;;
20080;SDS011;10200;49.232;9.222;2022-12-29T17:13:36;2.37;;;1.67;;
20080;SDS011;10200;49.232;9.222;2022-12-29T17:16:02;1.37;;;1.27;;
20080;SDS011;10200;49.232;9.222;2022-12-29T17:18:29;2.47;;;1.37;;
20080;SDS011;10200;49.232;9.222;2022-12-29T17:20:55;2.03;;;1.40;;
20080;SDS011;10200;49.232;9.222;2022-12-29T17:23:20;4.60;;;1.40;;
20080;SDS011;10200;49.232;9.222;2022-12-29T17:25:46;3.23;;;1.37;;
20080;SDS011;10200;49.232;9.222;2022-12-29T17:28:14;1.47;;;1.20;;
20080;SDS011;10200;49.232;9.222;2022-12-29T17:30:46;1.57;;;1.07;;
20080;SDS011;10200;49.232;9.222;2022-12-29T17:33:12;3.37;;;1.20;;
20080;SDS011;10200;49.232;9.222;2022-12-29T17:35:40;2.80;;;1.23;;
20080;SDS011;10200;49.232;9.222;2022-12-29T17:38:13;1.40;;;1.30;;
20080;SDS011;10200;49.232;9.222;2022-12-29T17:40:43;3.20;;;1.40;;
20080;SDS011;10200;49.232;9.222;2022-12-29T17:43:10;1.60;;;1.20;;